createdAt,value
2023-02-27T00:01:08.620Z,100.00
2023-02-27T00:03:37.314Z,100.00
2023-02-27T00:06:06.399Z,100.00
2023-02-27T00:08:35.762Z,100.00
2023-02-27T00:11:04.570Z,100.00
2023-02-27T00:13:34.486Z,100.00
2023-02-27T00:16:02.952Z,100.00
2023-02-27T00:18:31.982Z,100.00
2023-02-27T00:21:01.145Z,100.00
2023-02-27T00:23:29.586Z,100.00
2023-02-27T00:25:57.969Z,100.00
2023-02-27T00:28:26.765Z,100.00
2023-02-27T00:30:56.506Z,100.00
2023-02-27T00:33:25.047Z,100.00
2023-02-27T00:35:57.510Z,100.00
2023-02-27T00:38:26.469Z,100.00
2023-02-27T00:40:55.111Z,100.00
2023-02-27T00:43:23.615Z,100.00
2023-02-27T00:45:52.303Z,100.00
2023-02-27T00:48:22.526Z,100.00
2023-02-27T00:50:52.050Z,100.00
2023-02-27T00:53:20.331Z,100.00
2023-02-27T00:55:49.185Z,100.00
2023-02-27T00:58:17.869Z,100.00
2023-02-27T01:00:46.322Z,100.00
2023-02-27T01:03:14.713Z,100.00
2023-02-27T01:05:45.057Z,100.00
2023-02-27T01:08:13.498Z,100.00
2023-02-27T01:10:41.975Z,100.00
2023-02-27T01:13:11.401Z,100.00
2023-02-27T01:15:39.605Z,100.00
2023-02-27T01:18:07.966Z,100.00
2023-02-27T01:20:36.487Z,100.00
2023-02-27T01:23:06.357Z,100.00
2023-02-27T01:25:34.999Z,100.00
2023-02-27T01:28:03.629Z,100.00
2023-02-27T01:30:32.499Z,100.00
2023-02-27T01:33:01.013Z,100.00
2023-02-27T01:35:30.172Z,100.00
2023-02-27T01:37:58.790Z,100.00
2023-02-27T01:40:29.039Z,100.00
2023-02-27T01:42:57.324Z,100.00
2023-02-27T01:45:31.926Z,100.00
2023-02-27T01:48:13.698Z,100.00
2023-02-27T01:50:48.565Z,100.00
2023-02-27T01:53:18.368Z,100.00
2023-02-27T01:55:51.621Z,100.00
2023-02-27T01:58:20.826Z,100.00
2023-02-27T02:00:50.149Z,100.00
2023-02-27T02:03:28.126Z,100.00
2023-02-27T02:05:58.768Z,100.00
2023-02-27T02:08:30.699Z,100.00
2023-02-27T02:11:01.516Z,100.00
2023-02-27T02:13:29.860Z,100.00
2023-02-27T02:16:12.150Z,100.00
2023-02-27T02:18:49.312Z,100.00
2023-02-27T02:21:53.123Z,100.00
2023-02-27T02:25:08.658Z,100.00
2023-02-27T02:27:52.526Z,100.00
2023-02-27T02:30:56.880Z,100.00
2023-02-27T02:33:56.281Z,100.00
2023-02-27T02:37:07.579Z,100.00
2023-02-27T02:39:58.929Z,100.00
2023-02-27T02:42:29.986Z,100.00
2023-02-27T02:45:11.803Z,100.00
2023-02-27T02:48:02.081Z,100.00
2023-02-27T02:50:38.339Z,100.00
2023-02-27T02:53:13.830Z,100.00
2023-02-27T02:55:50.188Z,100.00
2023-02-27T02:58:28.244Z,100.00
2023-02-27T03:01:02.928Z,100.00
2023-02-27T03:03:36.888Z,100.00
2023-02-27T03:06:10.425Z,100.00
2023-02-27T03:08:45.986Z,100.00
2023-02-27T03:11:17.126Z,100.00
2023-02-27T03:13:52.678Z,100.00
2023-02-27T03:16:27.768Z,100.00
2023-02-27T03:19:03.453Z,100.00
2023-02-27T03:21:38.407Z,100.00
2023-02-27T03:24:12.644Z,100.00
2023-02-27T03:26:45.902Z,100.00
2023-02-27T03:29:20.921Z,100.00
2023-02-27T03:31:56.635Z,100.00
2023-02-27T03:34:29.149Z,100.00
2023-02-27T03:37:03.746Z,100.00
2023-02-27T03:39:41.524Z,100.00
2023-02-27T03:42:21.901Z,100.00
2023-02-27T03:44:59.686Z,100.00
2023-02-27T03:47:29.814Z,100.00
2023-02-27T03:49:58.894Z,100.00
2023-02-27T03:52:29.962Z,100.00
2023-02-27T03:55:03.722Z,100.00
2023-02-27T03:57:33.580Z,100.00
2023-02-27T04:00:03.296Z,100.00
2023-02-27T04:02:31.899Z,100.00
2023-02-27T04:05:02.023Z,100.00
2023-02-27T04:07:38.074Z,100.00
2023-02-27T04:10:33.991Z,100.00
2023-02-27T04:13:22.298Z,100.00
2023-02-27T04:16:09.069Z,100.00
2023-02-27T04:18:57.195Z,100.00
2023-02-27T04:21:32.725Z,100.00
2023-02-27T04:24:08.788Z,100.00
2023-02-27T04:26:43.823Z,100.00
2023-02-27T04:29:19.904Z,100.00
2023-02-27T04:31:56.256Z,100.00
2023-02-27T04:34:33.501Z,100.00
2023-02-27T04:37:09.088Z,100.00
2023-02-27T04:39:42.861Z,100.00
2023-02-27T04:42:13.553Z,100.00
2023-02-27T04:44:44.438Z,100.00
2023-02-27T04:47:15.533Z,100.00
2023-02-27T04:49:48.610Z,100.00
2023-02-27T04:52:21.910Z,100.00
2023-02-27T04:54:55.713Z,100.00
2023-02-27T04:57:25.606Z,100.00
2023-02-27T04:59:57.320Z,100.00
2023-02-27T05:02:29.778Z,100.00
2023-02-27T05:05:02.237Z,100.00
2023-02-27T05:07:35.370Z,100.00
2023-02-27T05:10:06.997Z,100.00
2023-02-27T05:12:40.484Z,100.00
2023-02-27T05:15:15.753Z,100.00
2023-02-27T05:17:49.644Z,100.00
2023-02-27T05:20:19.459Z,100.00
2023-02-27T05:22:53.625Z,100.00
2023-02-27T05:25:28.481Z,100.00
2023-02-27T05:28:04.494Z,100.00
2023-02-27T05:30:39.912Z,100.00
2023-02-27T05:33:15.359Z,100.00
2023-02-27T05:35:49.016Z,100.00
2023-02-27T05:38:23.446Z,100.00
2023-02-27T05:40:56.257Z,100.00
2023-02-27T05:43:30.084Z,100.00
2023-02-27T05:46:06.133Z,100.00
2023-02-27T05:48:38.465Z,100.00
2023-02-27T05:51:09.604Z,100.00
2023-02-27T05:53:43.680Z,100.00
2023-02-27T05:56:15.978Z,100.00
2023-02-27T05:58:48.025Z,100.00
2023-02-27T06:01:17.734Z,100.00
2023-02-27T06:03:46.311Z,100.00
2023-02-27T06:06:17.675Z,100.00
2023-02-27T06:08:46.754Z,100.00
2023-02-27T06:11:15.115Z,100.00
2023-02-27T06:13:43.484Z,100.00
2023-02-27T06:16:14.194Z,100.00
2023-02-27T06:18:46.086Z,100.00
2023-02-27T06:21:14.931Z,100.00
2023-02-27T06:23:43.431Z,100.00
2023-02-27T06:26:14.542Z,100.00
2023-02-27T06:28:43.741Z,100.00
2023-02-27T06:31:12.356Z,100.00
2023-02-27T06:33:41.190Z,100.00
2023-02-27T06:36:11.976Z,100.00
2023-02-27T06:38:41.164Z,100.00
2023-02-27T06:41:10.568Z,100.00
2023-02-27T06:43:39.221Z,100.00
2023-02-27T06:46:07.765Z,100.00
2023-02-27T06:48:36.448Z,100.00
2023-02-27T06:51:05.998Z,100.00
2023-02-27T06:53:36.387Z,100.00
2023-02-27T06:56:05.067Z,100.00
2023-02-27T06:58:33.625Z,100.00
2023-02-27T07:01:02.296Z,100.00
2023-02-27T07:03:30.908Z,100.00
2023-02-27T07:05:59.813Z,100.00
2023-02-27T07:08:28.414Z,100.00
2023-02-27T07:10:58.958Z,100.00
2023-02-27T07:13:27.411Z,100.00
2023-02-27T07:15:55.644Z,100.00
2023-02-27T07:18:25.119Z,100.00
2023-02-27T07:20:55.759Z,100.00
2023-02-27T07:23:24.419Z,100.00
2023-02-27T07:25:53.513Z,100.00
2023-02-27T07:28:23.820Z,100.00
2023-02-27T07:30:56.895Z,100.00
2023-02-27T07:33:26.055Z,100.00
2023-02-27T07:35:56.391Z,100.00
2023-02-27T07:38:24.822Z,100.00
2023-02-27T07:40:55.222Z,100.00
2023-02-27T07:43:25.172Z,100.00
2023-02-27T07:45:53.514Z,100.00
2023-02-27T07:48:22.067Z,100.00
2023-02-27T07:50:50.570Z,100.00
2023-02-27T07:53:19.077Z,99.92
2023-02-27T07:55:49.281Z,99.88
2023-02-27T07:58:18.383Z,97.58
2023-02-27T08:00:48.253Z,96.50
2023-02-27T08:03:16.513Z,95.16
2023-02-27T08:05:44.614Z,94.22
2023-02-27T08:08:13.128Z,92.65
2023-02-27T08:10:41.657Z,90.13
2023-02-27T08:13:10.311Z,91.10
2023-02-27T08:15:38.688Z,90.63
2023-02-27T08:18:09.371Z,89.35
2023-02-27T08:20:38.251Z,86.81
2023-02-27T08:23:07.149Z,84.93
2023-02-27T08:25:35.982Z,84.47
2023-02-27T08:28:04.814Z,83.79
2023-02-27T08:30:33.463Z,82.54
2023-02-27T08:33:02.183Z,81.69
2023-02-27T08:35:32.690Z,79.25
2023-02-27T08:38:02.560Z,78.57
2023-02-27T08:40:31.772Z,78.86
2023-02-27T08:43:02.204Z,78.23
2023-02-27T08:45:30.800Z,77.15
2023-02-27T08:47:59.591Z,75.65
2023-02-27T08:50:31.672Z,75.33
2023-02-27T08:53:02.988Z,74.13
2023-02-27T08:55:32.075Z,75.41
2023-02-27T08:58:00.553Z,75.29
2023-02-27T09:00:29.985Z,72.39
2023-02-27T09:02:58.519Z,72.77
2023-02-27T09:05:27.186Z,72.24
2023-02-27T09:07:55.511Z,71.59
2023-02-27T09:10:27.417Z,69.80
2023-02-27T09:12:56.131Z,68.98
2023-02-27T09:15:24.973Z,67.83
2023-02-27T09:17:56.461Z,67.11
2023-02-27T09:20:25.784Z,68.15
2023-02-27T09:22:54.231Z,68.24
2023-02-27T09:25:24.230Z,67.16
2023-02-27T09:27:54.787Z,66.27
2023-02-27T09:30:23.733Z,65.98
2023-02-27T09:32:52.890Z,66.02
2023-02-27T09:35:22.886Z,65.89
2023-02-27T09:37:51.376Z,65.55
2023-02-27T09:40:25.574Z,65.13
2023-02-27T09:42:58.328Z,63.99
2023-02-27T09:45:30.152Z,64.40
2023-02-27T09:48:05.374Z,64.90
2023-02-27T09:50:40.026Z,63.91
2023-02-27T09:53:14.939Z,62.91
2023-02-27T09:55:44.684Z,62.02
2023-02-27T09:58:31.148Z,62.23
2023-02-27T10:01:06.690Z,60.95
2023-02-27T10:04:02.006Z,59.96
2023-02-27T10:06:38.742Z,60.41
2023-02-27T10:09:18.400Z,60.42
2023-02-27T10:12:00.131Z,60.29
2023-02-27T10:14:41.124Z,58.63
2023-02-27T10:17:17.140Z,57.80
2023-02-27T10:19:49.770Z,57.37
2023-02-27T10:22:25.458Z,57.33
2023-02-27T10:24:59.285Z,57.90
2023-02-27T10:27:28.579Z,57.71
2023-02-27T10:30:28.508Z,57.88
2023-02-27T10:33:07.778Z,59.70
2023-02-27T10:35:39.796Z,59.57
2023-02-27T10:38:14.957Z,58.33
2023-02-27T10:40:44.379Z,58.09
2023-02-27T10:43:16.578Z,57.23
2023-02-27T10:45:46.788Z,57.22
2023-02-27T10:48:16.703Z,56.50
2023-02-27T10:50:46.684Z,55.73
2023-02-27T10:53:23.774Z,55.65
2023-02-27T10:56:02.132Z,55.68
2023-02-27T10:58:35.396Z,56.03
2023-02-27T11:01:07.692Z,55.44
2023-02-27T11:03:41.200Z,54.45
2023-02-27T11:06:11.236Z,54.38
2023-02-27T11:08:40.650Z,54.12
2023-02-27T11:11:11.380Z,52.73
2023-02-27T11:13:42.061Z,50.68
2023-02-27T11:16:15.619Z,51.79
2023-02-27T11:18:45.580Z,52.63
2023-02-27T11:21:25.492Z,51.60
2023-02-27T11:24:01.192Z,51.49
2023-02-27T11:26:35.075Z,51.51
2023-02-27T11:29:15.780Z,51.26
2023-02-27T11:31:53.918Z,52.06
2023-02-27T11:34:27.830Z,52.13
2023-02-27T11:37:01.088Z,52.19
2023-02-27T11:39:35.296Z,51.43
2023-02-27T11:42:27.599Z,51.44
2023-02-27T11:44:59.474Z,51.29
2023-02-27T11:47:35.472Z,50.61
2023-02-27T11:50:21.533Z,50.47
2023-02-27T11:52:54.385Z,51.31
2023-02-27T11:55:28.520Z,51.18
2023-02-27T11:58:05.155Z,50.65
2023-02-27T12:00:39.638Z,50.65
2023-02-27T12:03:21.708Z,49.66
2023-02-27T12:05:58.394Z,49.19
2023-02-27T12:08:36.228Z,49.46
2023-02-27T12:11:14.320Z,49.82
2023-02-27T12:13:49.308Z,50.59
2023-02-27T12:16:23.951Z,51.71
2023-02-27T12:18:58.791Z,51.44
2023-02-27T12:21:33.239Z,51.33
2023-02-27T12:24:11.126Z,51.06
2023-02-27T12:26:44.172Z,50.93
2023-02-27T12:29:22.686Z,50.20
2023-02-27T12:31:55.829Z,50.55
2023-02-27T12:34:41.665Z,51.18
2023-02-27T12:37:14.347Z,51.22
2023-02-27T12:39:49.002Z,51.32
2023-02-27T12:43:01.574Z,51.31
2023-02-27T12:45:49.769Z,51.45
2023-02-27T12:48:31.306Z,50.97
2023-02-27T12:51:18.480Z,50.97
2023-02-27T12:54:08.917Z,52.26
2023-02-27T12:56:51.614Z,51.63
2023-02-27T12:59:31.042Z,51.74
2023-02-27T13:02:09.982Z,51.04
2023-02-27T13:04:45.597Z,51.11
2023-02-27T13:07:24.630Z,51.15
2023-02-27T13:09:56.886Z,50.77
2023-02-27T13:12:35.593Z,50.06
2023-02-27T13:15:06.751Z,48.38
2023-02-27T13:17:41.673Z,49.48
2023-02-27T13:20:28.741Z,48.30
2023-02-27T13:23:06.356Z,48.58
2023-02-27T13:25:41.777Z,48.34
2023-02-27T13:28:18.921Z,47.90
2023-02-27T13:30:58.353Z,49.08
2023-02-27T13:33:34.231Z,48.71
2023-02-27T13:36:11.901Z,47.95
2023-02-27T13:38:46.382Z,48.46
2023-02-27T13:41:45.704Z,48.51
2023-02-27T13:44:43.732Z,49.30
2023-02-27T13:47:46.151Z,49.81
2023-02-27T13:50:53.049Z,50.15
2023-02-27T13:53:25.582Z,50.24
2023-02-27T13:56:21.998Z,49.65
2023-02-27T13:58:53.586Z,49.47
2023-02-27T14:01:28.766Z,48.88
2023-02-27T14:04:03.156Z,48.56
2023-02-27T14:06:32.505Z,48.42
2023-02-27T14:09:14.465Z,47.94
2023-02-27T14:11:55.488Z,48.36
2023-02-27T14:14:44.748Z,48.33
2023-02-27T14:17:15.224Z,48.14
2023-02-27T14:19:59.711Z,47.98
2023-02-27T14:22:44.133Z,47.70
2023-02-27T14:25:36.347Z,47.76
2023-02-27T14:28:07.080Z,48.78
2023-02-27T14:30:45.318Z,48.80
2023-02-27T14:33:37.380Z,48.62
2023-02-27T14:36:12.395Z,49.07
2023-02-27T14:38:40.986Z,49.65
2023-02-27T14:41:20.727Z,48.84
2023-02-27T14:43:57.015Z,49.56
2023-02-27T14:46:30.848Z,48.57
2023-02-27T14:49:00.622Z,48.10
2023-02-27T14:51:32.831Z,48.39
2023-02-27T14:54:04.291Z,47.67
2023-02-27T14:56:34.766Z,48.45
2023-02-27T14:59:18.735Z,47.41
2023-02-27T15:01:47.641Z,47.68
2023-02-27T15:04:20.918Z,46.84
2023-02-27T15:06:52.864Z,47.30
2023-02-27T15:09:25.280Z,48.11
2023-02-27T15:12:03.475Z,48.68
2023-02-27T15:14:36.903Z,48.14
2023-02-27T15:17:16.024Z,48.65
2023-02-27T15:19:49.549Z,48.86
2023-02-27T15:22:36.008Z,48.67
2023-02-27T15:25:08.584Z,49.55
2023-02-27T15:27:38.824Z,49.59
2023-02-27T15:30:21.932Z,49.77
2023-02-27T15:32:50.691Z,50.24
2023-02-27T15:35:22.845Z,50.36
2023-02-27T15:37:55.540Z,51.08
2023-02-27T15:40:26.517Z,51.28
2023-02-27T15:42:56.400Z,51.18
2023-02-27T15:45:29.520Z,51.38
2023-02-27T15:47:59.427Z,51.77
2023-02-27T15:50:32.740Z,50.96
2023-02-27T15:53:06.852Z,49.94
2023-02-27T15:55:39.232Z,48.53
2023-02-27T15:58:21.486Z,48.61
2023-02-27T16:00:53.822Z,49.15
2023-02-27T16:03:25.468Z,49.27
2023-02-27T16:05:54.838Z,49.81
2023-02-27T16:08:23.765Z,50.75
2023-02-27T16:10:53.582Z,51.16
2023-02-27T16:13:24.633Z,51.46
2023-02-27T16:16:03.757Z,51.58
2023-02-27T16:18:38.381Z,52.28
2023-02-27T16:21:12.329Z,51.17
2023-02-27T16:23:41.252Z,51.51
2023-02-27T16:26:36.880Z,51.97
2023-02-27T16:29:11.003Z,52.19
2023-02-27T16:31:42.761Z,52.11
2023-02-27T16:34:18.221Z,52.09
2023-02-27T16:36:56.153Z,51.71
2023-02-27T16:39:25.110Z,51.92
2023-02-27T16:41:54.995Z,51.97
2023-02-27T16:44:24.859Z,52.71
2023-02-27T16:46:56.252Z,52.88
2023-02-27T16:49:27.097Z,52.65
2023-02-27T16:51:57.666Z,53.30
2023-02-27T16:54:27.682Z,52.62
2023-02-27T16:56:56.693Z,53.50
2023-02-27T16:59:33.646Z,53.39
2023-02-27T17:02:06.828Z,54.16
2023-02-27T17:04:36.445Z,54.53
2023-02-27T17:07:07.240Z,55.05
2023-02-27T17:09:36.480Z,54.48
2023-02-27T17:12:05.428Z,54.16
2023-02-27T17:14:40.332Z,54.90
2023-02-27T17:17:14.115Z,54.24
2023-02-27T17:19:45.050Z,55.14
2023-02-27T17:22:18.052Z,55.44
2023-02-27T17:24:51.074Z,55.01
2023-02-27T17:27:22.124Z,55.48
2023-02-27T17:29:55.229Z,55.55
2023-02-27T17:32:26.304Z,55.71
2023-02-27T17:34:58.818Z,54.98
2023-02-27T17:37:29.300Z,55.17
2023-02-27T17:39:58.782Z,55.03
2023-02-27T17:42:28.362Z,54.59
2023-02-27T17:44:59.118Z,55.18
2023-02-27T17:47:29.581Z,55.22
2023-02-27T17:49:58.415Z,55.10
2023-02-27T17:52:27.651Z,54.97
2023-02-27T17:54:59.016Z,55.55
2023-02-27T17:57:28.543Z,55.35
2023-02-27T17:59:58.586Z,56.00
2023-02-27T18:02:30.332Z,55.26
2023-02-27T18:05:00.126Z,55.46
2023-02-27T18:07:30.578Z,56.23
2023-02-27T18:09:59.772Z,56.72
2023-02-27T18:12:28.345Z,56.71
2023-02-27T18:14:57.369Z,57.54
2023-02-27T18:17:32.569Z,58.33
2023-02-27T18:20:02.062Z,57.38
2023-02-27T18:22:38.160Z,58.10
2023-02-27T18:25:10.987Z,58.20
2023-02-27T18:27:52.904Z,58.43
2023-02-27T18:30:23.328Z,58.09
2023-02-27T18:32:58.562Z,57.31
2023-02-27T18:35:28.242Z,56.64
2023-02-27T18:37:57.255Z,56.26
2023-02-27T18:40:26.910Z,55.91
2023-02-27T18:42:56.193Z,55.64
2023-02-27T18:45:27.665Z,56.20
2023-02-27T18:47:58.096Z,55.95
2023-02-27T18:50:26.813Z,55.93
2023-02-27T18:52:56.612Z,55.45
2023-02-27T18:55:25.666Z,55.65
2023-02-27T18:58:01.693Z,56.35
2023-02-27T19:00:32.222Z,55.87
2023-02-27T19:03:02.769Z,56.29
2023-02-27T19:05:31.934Z,57.04
2023-02-27T19:08:01.057Z,56.42
2023-02-27T19:10:30.237Z,56.20
2023-02-27T19:12:59.423Z,57.58
2023-02-27T19:15:28.036Z,56.28
2023-02-27T19:17:57.257Z,56.79
2023-02-27T19:20:27.565Z,56.52
2023-02-27T19:22:55.868Z,56.28
2023-02-27T19:25:24.452Z,57.21
2023-02-27T19:27:54.720Z,57.40
2023-02-27T19:30:25.496Z,58.40
2023-02-27T19:32:54.195Z,57.70
2023-02-27T19:35:23.511Z,58.36
2023-02-27T19:37:58.477Z,58.21
2023-02-27T19:40:28.343Z,59.08
2023-02-27T19:42:57.408Z,59.45
2023-02-27T19:45:26.360Z,59.16
2023-02-27T19:47:55.025Z,59.69
2023-02-27T19:50:23.672Z,59.43
2023-02-27T19:52:53.642Z,60.19
2023-02-27T19:55:23.259Z,60.10
2023-02-27T19:57:51.627Z,60.49
2023-02-27T20:00:21.223Z,60.65
2023-02-27T20:02:49.680Z,60.57
2023-02-27T20:05:18.705Z,60.51
2023-02-27T20:07:48.722Z,60.53
2023-02-27T20:10:19.283Z,60.52
2023-02-27T20:12:48.073Z,60.20
2023-02-27T20:15:17.301Z,60.75
2023-02-27T20:17:45.652Z,60.63
2023-02-27T20:20:14.965Z,60.82
2023-02-27T20:22:45.196Z,60.54
2023-02-27T20:25:14.268Z,60.69
2023-02-27T20:27:44.207Z,61.32
2023-02-27T20:30:14.248Z,61.32
2023-02-27T20:32:46.673Z,62.16
2023-02-27T20:35:20.631Z,62.43
2023-02-27T20:37:49.482Z,62.78
2023-02-27T20:40:18.486Z,64.60
2023-02-27T20:42:48.733Z,63.40
2023-02-27T20:45:17.653Z,63.22
2023-02-27T20:47:46.477Z,63.58
2023-02-27T20:50:15.213Z,64.40
2023-02-27T20:52:43.675Z,65.35
2023-02-27T20:55:12.814Z,66.42
2023-02-27T20:57:41.270Z,65.62
2023-02-27T21:00:13.115Z,65.72
2023-02-27T21:02:41.400Z,65.99
2023-02-27T21:05:10.382Z,65.98
2023-02-27T21:07:39.022Z,67.41
2023-02-27T21:10:08.343Z,67.56
2023-02-27T21:12:38.375Z,68.07
2023-02-27T21:15:09.670Z,67.23
2023-02-27T21:17:39.911Z,67.70
2023-02-27T21:20:10.056Z,67.87
2023-02-27T21:22:39.725Z,68.36
2023-02-27T21:25:08.532Z,69.06
2023-02-27T21:27:37.521Z,69.38
2023-02-27T21:30:16.663Z,69.86
2023-02-27T21:32:47.642Z,70.86
2023-02-27T21:35:16.643Z,71.57
2023-02-27T21:37:46.945Z,71.96
2023-02-27T21:40:15.561Z,72.23
2023-02-27T21:42:44.752Z,72.67
2023-02-27T21:45:13.370Z,73.47
2023-02-27T21:47:41.792Z,75.06
2023-02-27T21:50:15.176Z,76.30
2023-02-27T21:52:43.927Z,75.06
2023-02-27T21:55:13.494Z,75.13
2023-02-27T21:57:41.952Z,74.83
2023-02-27T22:00:13.529Z,75.06
2023-02-27T22:02:41.843Z,75.57
2023-02-27T22:05:11.810Z,76.51
2023-02-27T22:07:41.241Z,75.73
2023-02-27T22:10:11.161Z,77.18
2023-02-27T22:12:39.643Z,77.13
2023-02-27T22:15:09.037Z,77.63
2023-02-27T22:17:37.414Z,77.22
2023-02-27T22:20:07.188Z,78.59
2023-02-27T22:22:37.189Z,79.67
2023-02-27T22:25:05.670Z,80.55
2023-02-27T22:27:34.227Z,82.17
2023-02-27T22:30:02.963Z,85.23
2023-02-27T22:32:31.355Z,84.28
2023-02-27T22:35:00.408Z,84.93
2023-02-27T22:37:29.459Z,83.01
2023-02-27T22:39:59.480Z,82.65
2023-02-27T22:42:27.802Z,82.89
2023-02-27T22:44:56.189Z,83.03
2023-02-27T22:47:24.567Z,83.81
2023-02-27T22:49:53.078Z,84.38
2023-02-27T22:52:21.495Z,84.75
2023-02-27T22:54:50.235Z,86.01
2023-02-27T22:57:20.268Z,86.64
2023-02-27T22:59:51.084Z,87.35
2023-02-27T23:02:19.486Z,87.56
2023-02-27T23:04:47.907Z,88.99
2023-02-27T23:07:16.650Z,90.33
2023-02-27T23:09:45.296Z,91.18
2023-02-27T23:12:13.838Z,92.69
2023-02-27T23:14:44.187Z,94.24
2023-02-27T23:17:12.547Z,95.45
2023-02-27T23:19:41.227Z,96.53
2023-02-27T23:22:10.218Z,97.87
2023-02-27T23:24:41.174Z,97.96
2023-02-27T23:27:25.475Z,98.03
2023-02-27T23:29:56.145Z,98.96
2023-02-27T23:32:24.886Z,99.34
2023-02-27T23:34:53.159Z,99.19
2023-02-27T23:37:21.692Z,99.55
2023-02-27T23:39:50.112Z,99.97
2023-02-27T23:42:18.430Z,100.00
2023-02-27T23:45:04.152Z,100.00
2023-02-27T23:47:43.184Z,100.00
2023-02-27T23:50:13.096Z,100.00
2023-02-27T23:52:41.609Z,100.00
2023-02-27T23:55:10.495Z,100.00
2023-02-27T23:57:39.049Z,100.00
